GTI8901 PANC-PANC
Flight info
| Callsign | GTI8901 |
|---|---|
| Flight time | N/A |
| Altitude | 8000 |
| Route | IVANN |
| Aircraft | B77L/H-SDE1E2E3FGHIJ2J3J4J5M1RWXYZ/LB1D1 |
Departure
| Time | 2026-04-30 22:49 |
|---|---|
| Airport | Ted Stevens Anchorage International Airport (PANC) |
Arrival
| Time | N/A |
|---|---|
| Airport | Ted Stevens Anchorage International Airport (PANC) |
| Time | Latitude | Longitude | Altitude | Speed | Heading |
|---|---|---|---|---|---|
| 2026-04-30 22:10 | 61.17794 | -149.99409 | 154 ft | 0 kts | 70° |
| 2026-04-30 22:42 | 61.17771 | -149.99241 | 147 ft | 10 kts | 142° |
| 2026-04-30 22:43 | 61.17657 | -149.99098 | 147 ft | 11 kts | 160° |
| 2026-04-30 22:43 | 61.17474 | -149.98968 | 147 ft | 15 kts | 162° |
| 2026-04-30 22:44 | 61.17289 | -149.98821 | 146 ft | 12 kts | 161° |
| 2026-04-30 22:45 | 61.17117 | -149.98441 | 138 ft | 14 kts | 90° |
| 2026-04-30 22:45 | 61.17117 | -149.97937 | 138 ft | 19 kts | 90° |
| 2026-04-30 22:46 | 61.17117 | -149.97440 | 138 ft | 15 kts | 89° |
| 2026-04-30 22:47 | 61.17083 | -149.96805 | 137 ft | 9 kts | 167° |
| 2026-04-30 22:47 | 61.16914 | -149.96844 | 136 ft | 14 kts | 220° |
| 2026-04-30 22:48 | 61.16848 | -149.97169 | 137 ft | 13 kts | 253° |
| 2026-04-30 22:49 | 61.16786 | -149.98407 | 135 ft | 95 kts | 270° |
| 2026-04-30 22:49 | 61.16763 | -150.05188 | 873 ft | 181 kts | 265° |
| 2026-04-30 22:50 | 61.16906 | -150.17345 | 2201 ft | 262 kts | 305° |
| 2026-04-30 22:51 | 61.19698 | -150.22584 | 3486 ft | 279 kts | 320° |
| 2026-04-30 22:51 | 61.22688 | -150.28030 | 5046 ft | 292 kts | 316° |
| 2026-04-30 22:52 | 61.24197 | -150.30862 | 5918 ft | 292 kts | 314° |
| 2026-04-30 22:52 | 61.26698 | -150.35629 | 7057 ft | 296 kts | 313° |
| 2026-04-30 22:53 | 61.29708 | -150.41431 | 7811 ft | 294 kts | 313° |
| 2026-04-30 22:53 | 61.32731 | -150.47302 | 7989 ft | 299 kts | 312° |
| 2026-04-30 22:53 | 61.34246 | -150.50246 | 7983 ft | 296 kts | 312° |
| 2026-04-30 22:54 | 61.37656 | -150.54766 | 7997 ft | 303 kts | 351° |
| 2026-04-30 22:55 | 61.43118 | -150.49192 | 8012 ft | 303 kts | 46° |
| 2026-04-30 22:55 | 61.45839 | -150.42629 | 7726 ft | 292 kts | 59° |
| 2026-04-30 22:56 | 61.48003 | -150.35671 | 7168 ft | 282 kts | 64° |
| 2026-04-30 22:56 | 61.50484 | -150.24930 | 5716 ft | 261 kts | 89° |
| 2026-04-30 22:57 | 61.49142 | -150.18632 | 4473 ft | 246 kts | 147° |
| 2026-04-30 22:57 | 61.45906 | -150.16148 | 3671 ft | 248 kts | 161° |
| 2026-04-30 22:58 | 61.42643 | -150.14261 | 3235 ft | 235 kts | 162° |
| 2026-04-30 22:59 | 61.37918 | -150.11588 | 2978 ft | 218 kts | 162° |
| 2026-04-30 22:59 | 61.34004 | -150.09366 | 2982 ft | 178 kts | 161° |